This is the latest recevied weather packets stored in our database for station/object I8ZSE-10. If no packets are shown the sender has not sent any weather packets the latest 10 day(s).
| Time | Temp. | Humidity | Pressure | Rain* | Wind** | Luminosity | Snow |
|---|---|---|---|---|---|---|---|
| 1788117330 | 27.78° C | 67% | - | 0 mm | - | - | - |
| 1788116730 | 27.22° C | 70% | - | 0 mm | - | - | - |
| 1788116130 | 27.78° C | 67% | - | 0 mm | - | - | - |
| 1788115530 | 27.78° C | 64% | - | 0 mm | - | - | - |
| 1788114930 | 27.78° C | 61% | - | 0 mm | - | - | - |
| 1788114330 | 28.33° C | 57% | - | 0 mm | - | - | - |
| 1788113730 | 28.33° C | 53% | - | 0 mm | - | - | - |
| 1788113130 | 28.33° C | 51% | - | 0 mm | - | - | - |
| 1788112530 | 28.33° C | 50% | - | 0 mm | - | - | - |
| 1788111930 | 28.33° C | 48% | - | 0 mm | - | - | - |
| 1788111330 | 28.89° C | 45% | - | 0 mm | - | - | - |
| 1788110730 | 28.89° C | 43% | - | 0 mm | - | - | - |
| 1788110130 | 30° C | 40% | - | 0 mm | - | - | - |
| 1788109530 | 30.56° C | 40% | - | 0 mm | - | - | - |
| 1788108930 | 30° C | 41% | - | 0 mm | - | - | - |
| 1788108330 | 30.56° C | 41% | - | 0 mm | - | - | - |
| 1788107730 | 31.11° C | 41% | - | 0 mm | - | - | - |
| 1788107130 | 30.56° C | 43% | - | 0 mm | - | - | - |
| 1788106530 | 30.56° C | 43% | - | 0 mm | - | - | - |
| 1788105930 | 31.11° C | 41% | - | 0 mm | - | - | - |
| 1788105330 | 31.11° C | 41% | - | 0 mm | - | - | - |
| 1788104730 | 31.67° C | 40% | - | 0 mm | - | - | - |
| 1788104130 | 31.11° C | 40% | - | 0 mm | - | - | - |
| 1788103530 | 31.67° C | 38% | - | 0 mm | - | - | - |
| 1788102930 | 31.67° C | 39% | - | 0 mm | - | - | - |
* Rain latest hour (hover to see other rain measurements)
** Current wind speed in m/s (hover to see current wind gust speed)